createdAt,value
2023-10-10T00:03:33.893Z,10.14
2023-10-10T00:10:01.550Z,10.10
2023-10-10T00:16:12.219Z,10.10
2023-10-10T00:23:19.993Z,10.11
2023-10-10T00:29:45.428Z,10.18
2023-10-10T00:37:01.876Z,10.23
2023-10-10T00:44:29.829Z,10.25
2023-10-10T00:50:49.638Z,10.26
2023-10-10T00:57:23.247Z,10.31
2023-10-10T01:04:07.448Z,10.30
2023-10-10T01:11:05.581Z,10.32
2023-10-10T01:17:41.408Z,10.33
2023-10-10T01:25:01.980Z,10.33
2023-10-10T01:31:54.293Z,10.37
2023-10-10T01:37:43.658Z,10.42
2023-10-10T01:43:26.377Z,10.48
2023-10-10T01:49:49.469Z,10.56
2023-10-10T02:03:40.834Z,10.58
2023-10-10T02:10:07.229Z,10.59
2023-10-10T02:16:12.352Z,10.59
2023-10-10T02:22:14.326Z,10.65
2023-10-10T02:29:05.420Z,10.65
2023-10-10T02:42:21.338Z,10.64
2023-10-10T02:48:34.007Z,10.61
2023-10-10T03:02:54.536Z,10.55
2023-10-10T03:08:45.800Z,10.50
2023-10-10T03:22:09.709Z,10.44
2023-10-10T03:28:10.921Z,10.43
2023-10-10T03:34:53.324Z,10.46
2023-10-10T03:41:28.790Z,10.48
2023-10-10T03:47:58.271Z,10.51
2023-10-10T03:54:17.973Z,10.51
2023-10-10T04:01:22.855Z,10.51
2023-10-10T04:07:53.053Z,10.51
2023-10-10T04:14:40.087Z,10.52
2023-10-10T04:20:46.341Z,10.51
2023-10-10T04:26:24.511Z,10.54
2023-10-10T04:31:58.971Z,10.52
2023-10-10T04:37:47.213Z,10.50
2023-10-10T04:44:11.064Z,10.50
2023-10-10T04:51:11.626Z,10.50
2023-10-10T04:58:06.116Z,10.56
2023-10-10T05:04:36.008Z,10.59
2023-10-10T05:10:56.810Z,10.63
2023-10-10T05:16:55.088Z,10.58
2023-10-10T05:23:29.516Z,10.53
2023-10-10T05:29:55.783Z,10.58
2023-10-10T05:36:32.900Z,10.63
2023-10-10T05:43:16.040Z,10.74
2023-10-10T05:49:42.236Z,10.87
2023-10-10T05:55:00.668Z,10.96
2023-10-10T06:00:43.343Z,11.00
2023-10-10T06:06:00.819Z,11.02
2023-10-10T06:12:18.935Z,11.11
2023-10-10T06:18:10.301Z,11.20
2023-10-10T06:24:03.975Z,11.22
2023-10-10T06:29:55.343Z,11.29
2023-10-10T06:35:40.030Z,11.39
2023-10-10T06:42:09.405Z,11.50
2023-10-10T06:47:56.003Z,11.73
2023-10-10T06:53:57.688Z,11.96
2023-10-10T07:00:13.980Z,12.00
2023-10-10T07:06:04.806Z,12.04
2023-10-10T07:11:41.727Z,12.15
2023-10-10T07:17:20.381Z,12.21
2023-10-10T07:23:14.749Z,12.43
2023-10-10T07:29:09.064Z,12.65
2023-10-10T07:35:29.755Z,12.89
2023-10-10T07:41:15.894Z,13.13
2023-10-10T07:47:54.611Z,13.30
2023-10-10T07:54:34.971Z,13.54
2023-10-10T08:00:56.532Z,13.72
2023-10-10T08:06:48.070Z,13.92
2023-10-10T08:13:26.098Z,14.04
2023-10-10T08:19:42.033Z,13.95
2023-10-10T08:26:29.632Z,13.98
2023-10-10T08:32:49.402Z,14.23
2023-10-10T08:39:37.239Z,14.57
2023-10-10T08:45:56.628Z,14.47
2023-10-10T08:52:10.467Z,14.41
2023-10-10T08:57:28.123Z,14.59
2023-10-10T09:02:59.616Z,14.71
2023-10-10T09:08:56.471Z,14.76
2023-10-10T09:15:48.015Z,14.97
2023-10-10T09:21:47.986Z,15.14
2023-10-10T09:28:05.704Z,15.44
2023-10-10T09:34:05.455Z,15.53
2023-10-10T09:39:43.097Z,15.56
2023-10-10T09:45:15.488Z,15.47
2023-10-10T09:50:51.959Z,15.30
2023-10-10T09:56:57.482Z,15.31
2023-10-10T10:02:42.214Z,15.56
2023-10-10T10:08:38.796Z,15.81
2023-10-10T10:15:09.017Z,15.91
2023-10-10T10:20:25.301Z,16.00
2023-10-10T10:25:53.745Z,16.05
2023-10-10T10:31:33.187Z,15.93
2023-10-10T10:37:24.550Z,15.76
2023-10-10T10:42:49.915Z,15.69
2023-10-10T10:49:00.380Z,15.67
2023-10-10T10:54:09.136Z,15.66
2023-10-10T10:59:14.352Z,15.80
2023-10-10T11:04:40.370Z,16.09
2023-10-10T11:10:09.565Z,16.16
2023-10-10T11:15:17.413Z,16.16
2023-10-10T11:20:39.286Z,16.20
2023-10-10T11:25:48.072Z,16.25
2023-10-10T11:31:00.242Z,16.27
2023-10-10T11:36:51.427Z,16.39
2023-10-10T11:41:55.995Z,16.54
2023-10-10T11:47:33.822Z,16.64
2023-10-10T11:53:21.378Z,17.00
2023-10-10T11:58:54.312Z,17.42
2023-10-10T12:04:09.783Z,17.79
2023-10-10T12:10:08.883Z,18.06
2023-10-10T12:22:18.300Z,18.82
2023-10-10T12:27:41.468Z,19.12
2023-10-10T12:33:09.203Z,19.54
2023-10-10T12:38:22.553Z,19.71
2023-10-10T12:43:38.770Z,19.40
2023-10-10T12:48:44.798Z,18.87
2023-10-10T12:53:47.483Z,18.39
2023-10-10T12:58:59.411Z,18.25
2023-10-10T13:04:31.389Z,18.38
2023-10-10T13:09:43.847Z,18.53
2023-10-10T13:14:54.453Z,18.62
2023-10-10T13:20:30.768Z,18.64
2023-10-10T13:25:47.916Z,18.89
2023-10-10T13:32:12.773Z,19.26
2023-10-10T13:37:37.930Z,19.32
2023-10-10T13:43:00.872Z,19.07
2023-10-10T13:53:16.249Z,18.82
2023-10-10T13:58:32.611Z,18.73
2023-10-10T14:03:46.745Z,18.50
2023-10-10T14:09:00.438Z,18.37
2023-10-10T14:14:12.188Z,18.32
2023-10-10T14:19:14.905Z,18.30
2023-10-10T14:24:17.498Z,18.28
2023-10-10T14:29:22.695Z,18.25
2023-10-10T14:34:27.783Z,18.22
2023-10-10T14:39:54.127Z,18.23
2023-10-10T14:44:56.846Z,18.20
2023-10-10T14:50:11.406Z,18.08
2023-10-10T14:55:29.112Z,17.97
2023-10-10T15:00:58.521Z,17.83
2023-10-10T15:06:10.315Z,17.71
2023-10-10T15:11:13.388Z,17.69
2023-10-10T15:16:16.309Z,17.69
2023-10-10T15:21:28.498Z,17.67
2023-10-10T15:26:32.719Z,17.60
2023-10-10T15:31:37.810Z,17.49
2023-10-10T15:36:46.103Z,17.39
2023-10-10T15:41:52.419Z,17.37
2023-10-10T15:46:59.927Z,17.41
2023-10-10T15:52:05.503Z,17.39
2023-10-10T15:57:10.761Z,17.40
2023-10-10T16:02:15.401Z,17.38
2023-10-10T16:07:19.580Z,17.33
2023-10-10T16:12:22.061Z,17.24
2023-10-10T16:17:25.219Z,17.12
2023-10-10T16:22:29.285Z,16.99
2023-10-10T16:27:34.602Z,16.83
2023-10-10T16:32:43.157Z,16.68
2023-10-10T16:37:51.016Z,16.59
2023-10-10T16:42:57.797Z,16.52
2023-10-10T16:48:09.843Z,16.44
2023-10-10T16:53:14.982Z,16.38
2023-10-10T16:58:17.874Z,16.31
2023-10-10T17:03:20.955Z,16.25
2023-10-10T17:08:31.213Z,16.17
2023-10-10T17:13:39.825Z,16.12
2023-10-10T17:18:54.054Z,16.05
2023-10-10T17:24:01.221Z,16.01
2023-10-10T17:29:05.929Z,15.96
2023-10-10T17:34:34.019Z,15.93
2023-10-10T17:39:39.429Z,15.89
2023-10-10T17:44:54.415Z,15.84
2023-10-10T17:50:00.638Z,15.76
2023-10-10T17:55:08.970Z,15.65
2023-10-10T18:00:36.304Z,15.56
2023-10-10T18:05:43.536Z,15.53
2023-10-10T18:10:48.813Z,15.52
2023-10-10T18:15:51.218Z,15.50
2023-10-10T18:20:55.928Z,15.47
2023-10-10T18:26:14.635Z,15.40
2023-10-10T18:31:26.270Z,15.32
2023-10-10T18:36:28.966Z,15.19
2023-10-10T18:41:33.437Z,15.06
2023-10-10T18:46:37.375Z,14.93
2023-10-10T18:51:40.167Z,14.83
2023-10-10T18:56:43.602Z,14.71
2023-10-10T19:01:49.660Z,14.53
2023-10-10T19:06:56.012Z,14.38
2023-10-10T19:11:59.108Z,14.31
2023-10-10T19:17:02.776Z,14.26
2023-10-10T19:22:09.091Z,14.13
2023-10-10T19:27:13.750Z,13.97
2023-10-10T19:32:19.838Z,13.83
2023-10-10T19:37:22.676Z,13.75
2023-10-10T19:42:28.023Z,13.73
2023-10-10T19:47:32.896Z,13.73
2023-10-10T19:52:41.694Z,13.76
2023-10-10T19:57:47.863Z,13.76
2023-10-10T20:02:58.021Z,13.71
2023-10-10T20:08:21.565Z,13.68
2023-10-10T20:13:23.767Z,13.57
2023-10-10T20:18:26.794Z,13.46
2023-10-10T20:23:28.829Z,13.35
2023-10-10T20:28:30.932Z,13.24
2023-10-10T20:33:34.842Z,13.17
2023-10-10T20:38:37.243Z,13.14
2023-10-10T20:43:48.530Z,13.19
2023-10-10T20:49:48.766Z,13.26
2023-10-10T20:55:19.990Z,13.30
2023-10-10T21:00:35.758Z,13.33
2023-10-10T21:05:44.717Z,13.40
2023-10-10T21:11:18.888Z,13.36
2023-10-10T21:16:48.654Z,13.34
2023-10-10T21:22:31.435Z,13.29
2023-10-10T21:27:35.766Z,13.28
2023-10-10T21:32:41.840Z,13.23
2023-10-10T21:37:44.924Z,13.20
2023-10-10T21:43:13.979Z,13.16
2023-10-10T21:48:47.277Z,13.13
2023-10-10T21:54:00.426Z,13.08
2023-10-10T21:59:08.102Z,13.03
2023-10-10T22:04:24.092Z,12.97
2023-10-10T22:09:33.917Z,12.92
2023-10-10T22:14:40.771Z,12.84
2023-10-10T22:19:58.579Z,12.80
2023-10-10T22:25:04.109Z,12.78
2023-10-10T22:30:15.070Z,12.75
2023-10-10T22:35:19.703Z,12.67
2023-10-10T22:40:26.655Z,12.66
2023-10-10T22:45:34.320Z,12.65
2023-10-10T22:50:38.036Z,12.60
2023-10-10T22:55:50.388Z,12.67
2023-10-10T23:00:58.204Z,12.68
2023-10-10T23:06:15.762Z,12.76
2023-10-10T23:11:19.450Z,12.82
2023-10-10T23:16:25.802Z,12.89
2023-10-10T23:21:44.780Z,12.95
2023-10-10T23:26:51.841Z,12.97
2023-10-10T23:32:09.954Z,13.04
2023-10-10T23:37:26.452Z,13.13
2023-10-10T23:42:37.304Z,13.21
2023-10-10T23:48:03.733Z,13.24
2023-10-10T23:53:25.666Z,13.30
2023-10-10T23:59:33.457Z,13.31
